Time;durP1;ratioP1;P1;durP2;ratioP2;P2;SDS_P1;SDS_P2;PMS_P1;PMS_P2;Temp;Humidity;BMP_temperature;BMP_pressure;BME280_temperature;BME280_humidity;BME280_pressure;Samples;Min_cycle;Max_cycle;Signal;HPM_P1;HPM_P2
2023/07/26 00:05:13;;;;;;;4.50;4.00;;;;;;;13.28;70.63;98232.81;436778;1253;139603;-66
2023/07/26 00:15:19;;;;;;;5.30;4.40;;;;;;;13.24;71.27;98234.97;436022;1256;139431;-66
2023/07/26 00:25:25;;;;;;;6.20;4.70;;;;;;;13.22;71.85;98246.63;436335;1253;142187;-67
2023/07/26 00:35:41;;;;;;;5.20;4.40;;;;;;;13.27;72.04;98254.52;436203;1253;139393;-67
2023/07/26 00:45:47;;;;;;;7.90;5.50;;;;;;;13.42;72.32;98257.67;436390;1253;140343;-66
2023/07/26 00:55:54;;;;;;;6.20;5.60;;;;;;;13.59;72.66;98258.71;436188;1253;139146;-68
2023/07/26 01:06:09;;;;;;;7.90;4.90;;;;;;;13.70;72.56;98272.44;436806;1256;139449;-67
2023/07/26 01:16:15;;;;;;;5.20;4.70;;;;;;;13.72;72.89;98278.68;436102;1256;140541;-67
2023/07/26 01:26:22;;;;;;;6.60;5.30;;;;;;;13.72;72.75;98252.23;436849;1254;139614;-67
2023/07/26 01:36:30;;;;;;;6.10;5.20;;;;;;;13.51;73.00;98261.41;435849;1254;139751;-67
2023/07/26 01:46:36;;;;;;;5.10;4.60;;;;;;;13.43;73.34;98257.23;435519;1253;140115;-66
2023/07/26 01:56:42;;;;;;;8.30;5.00;;;;;;;13.39;73.66;98254.63;435343;1253;139081;-67
2023/07/26 02:06:47;;;;;;;6.80;5.30;;;;;;;13.54;74.00;98265.05;435547;1254;141136;-66
2023/07/26 02:16:53;;;;;;;7.80;5.20;;;;;;;13.65;74.03;98262.74;435639;1256;139124;-66
2023/07/26 02:26:59;;;;;;;7.30;5.30;;;;;;;13.71;74.03;98260.23;435467;1256;141170;-66
2023/07/26 02:37:05;;;;;;;6.60;5.30;;;;;;;13.80;74.07;98249.80;435547;1256;141253;-66
2023/07/26 02:47:11;;;;;;;8.60;5.60;;;;;;;13.85;74.08;98251.06;436006;1256;139595;-66
2023/07/26 02:57:17;;;;;;;5.90;5.30;;;;;;;13.88;74.10;98278.25;435700;1254;139323;-66
2023/07/26 03:07:23;;;;;;;6.60;5.30;;;;;;;13.96;74.06;98292.27;435862;1253;139822;-67
2023/07/26 03:17:29;;;;;;;8.50;4.90;;;;;;;14.05;74.14;98296.80;435861;1256;139204;-67
2023/07/26 03:27:34;;;;;;;8.50;5.70;;;;;;;14.25;74.69;98297.50;435738;1256;139696;-66
2023/07/26 03:37:40;;;;;;;6.30;5.70;;;;;;;14.36;75.11;98296.51;435868;1253;140504;-66
2023/07/26 03:47:46;;;;;;;10.20;6.60;;;;;;;14.46;75.25;98318.15;435909;1256;139146;-66
2023/07/26 03:57:52;;;;;;;6.50;4.80;;;;;;;14.57;75.28;98306.63;435504;1253;139494;-67
2023/07/26 04:07:58;;;;;;;7.80;4.80;;;;;;;14.75;75.30;98304.34;435905;1256;140470;-65
2023/07/26 04:18:04;;;;;;;9.50;4.70;;;;;;;15.01;75.42;98322.29;435807;1256;140185;-67
2023/07/26 04:28:10;;;;;;;6.00;5.00;;;;;;;15.44;75.13;98329.02;435983;1256;140571;-66
2023/07/26 04:38:17;;;;;;;6.60;5.30;;;;;;;15.94;74.31;98341.45;435909;1256;139469;-67
2023/07/26 04:48:26;;;;;;;7.10;4.20;;;;;;;16.34;72.90;98364.77;436464;1253;139144;-67
2023/07/26 04:58:32;;;;;;;5.90;4.30;;;;;;;16.33;72.39;98387.11;435695;1253;139520;-65
2023/07/26 05:08:38;;;;;;;8.10;5.10;;;;;;;16.21;72.73;98401.73;435811;1254;139496;-66
2023/07/26 05:18:43;;;;;;;6.40;4.70;;;;;;;16.28;73.50;98408.96;435858;1254;140189;-66
2023/07/26 05:28:49;;;;;;;5.10;4.60;;;;;;;16.31;73.83;98412.87;435981;1253;140287;-65
2023/07/26 05:38:55;;;;;;;6.90;4.70;;;;;;;16.17;74.27;98421.61;435920;1257;140467;-66
2023/07/26 05:49:02;;;;;;;8.70;4.70;;;;;;;15.96;74.61;98436.36;435773;1257;140730;-68
2023/07/26 05:59:08;;;;;;;4.90;3.80;;;;;;;15.71;74.67;98439.74;435865;1256;139017;-66
2023/07/26 06:09:13;;;;;;;7.40;2.70;;;;;;;15.67;74.39;98445.34;435115;1256;139630;-68
2023/07/26 06:19:19;;;;;;;6.50;2.30;;;;;;;15.58;74.02;98440.38;435593;1254;140636;-67
2023/07/26 06:29:25;;;;;;;2.30;2.00;;;;;;;15.49;73.50;98450.73;435438;1256;139140;-68
2023/07/26 06:39:31;;;;;;;3.50;1.80;;;;;;;15.39;72.78;98462.61;435647;1256;140043;-69
2023/07/26 06:49:36;;;;;;;6.00;2.10;;;;;;;15.32;72.54;98474.11;435361;1256;139820;-69
2023/07/26 06:59:42;;;;;;;4.10;2.10;;;;;;;15.44;72.42;98493.33;436037;1254;139062;-65
2023/07/26 07:09:48;;;;;;;7.30;2.40;;;;;;;15.43;72.00;98506.34;435646;1256;142441;-66
2023/07/26 07:19:54;;;;;;;6.20;2.50;;;;;;;15.44;71.87;98518.88;435534;1257;139583;-67
2023/07/26 07:30:01;;;;;;;5.60;1.70;;;;;;;15.26;70.90;98528.41;436208;1257;138972;-67
2023/07/26 07:40:09;;;;;;;5.50;1.90;;;;;;;14.96;70.03;98549.44;436314;1254;176365;-66
2023/07/26 07:50:14;;;;;;;3.50;1.00;;;;;;;14.77;69.46;98558.95;435618;1256;141017;-71
2023/07/26 08:00:20;;;;;;;4.80;0.80;;;;;;;14.67;69.74;98571.70;438486;1257;139068;-69
2023/07/26 08:10:26;;;;;;;3.00;1.50;;;;;;;14.60;69.57;98588.42;436127;1256;140312;-75
2023/07/26 08:20:36;;;;;;;3.70;1.20;;;;;;;14.55;69.84;98595.63;438319;1254;139057;-82
2023/07/26 08:30:42;;;;;;;2.90;1.70;;;;;;;14.60;69.88;98597.06;438238;1254;139397;-69
2023/07/26 08:40:50;;;;;;;3.40;1.40;;;;;;;14.71;70.35;98602.58;435737;1256;141041;-72
2023/07/26 08:50:56;;;;;;;4.20;2.40;;;;;;;14.90;71.46;98601.23;438038;1257;139339;-67
2023/07/26 09:01:02;;;;;;;5.40;2.10;;;;;;;15.23;72.24;98615.70;436675;1253;140762;-68
2023/07/26 09:11:23;;;;;;;4.10;2.60;;;;;;;15.50;72.80;98614.58;435261;1256;140958;-68
2023/07/26 09:21:42;;;;;;;6.00;3.20;;;;;;;15.63;73.50;98621.23;435813;1255;139519;-63
2023/07/26 09:31:48;;;;;;;8.30;3.50;;;;;;;15.71;74.15;98634.52;435253;1254;139795;-66
2023/07/26 09:42:05;;;;;;;3.60;2.50;;;;;;;15.73;74.50;98637.56;436807;1256;139336;-67
2023/07/26 09:52:12;;;;;;;5.40;2.30;;;;;;;15.47;74.51;98644.05;435617;1257;139163;-68
2023/07/26 10:02:19;;;;;;;5.30;2.40;;;;;;;15.48;74.32;98651.10;435260;1256;139864;-72
2023/07/26 10:12:26;;;;;;;4.60;2.10;;;;;;;15.67;74.35;98662.84;437293;1254;139937;-82
2023/07/26 10:22:33;;;;;;;3.60;2.30;;;;;;;16.03;73.78;98642.09;441760;1254;139393;-79
2023/07/26 10:32:47;;;;;;;6.70;2.50;;;;;;;16.48;72.84;98642.98;438810;1254;140559;-72
2023/07/26 10:42:53;;;;;;;5.40;2.20;;;;;;;16.59;71.65;98656.33;439068;1254;139872;-76
2023/07/26 10:53:19;;;;;;;7.30;2.50;;;;;;;16.53;71.83;98663.00;439384;1254;139499;-76
2023/07/26 11:03:29;;;;;;;2.60;2.10;;;;;;;16.44;72.62;98667.70;438432;1254;139280;-73
2023/07/26 11:13:36;;;;;;;4.10;2.20;;;;;;;16.45;73.35;98665.98;436128;1254;141338;-71
2023/07/26 11:23:41;;;;;;;3.80;1.90;;;;;;;16.67;73.76;98668.95;435615;1253;139642;-63
2023/07/26 11:33:48;;;;;;;3.70;2.40;;;;;;;16.92;73.47;98672.41;435036;1256;139732;-63
2023/07/26 11:43:55;;;;;;;4.40;2.30;;;;;;;17.01;73.15;98692.70;435191;1256;139820;-63
2023/07/26 11:54:01;;;;;;;3.20;2.10;;;;;;;17.11;73.42;98694.67;435139;1254;140332;-67
2023/07/26 12:04:15;;;;;;;2.80;1.80;;;;;;;17.15;72.95;98701.02;434970;1256;139698;-65
2023/07/26 12:14:21;;;;;;;3.80;2.60;;;;;;;17.01;72.77;98706.20;436005;1253;139452;-66
2023/07/26 12:24:27;;;;;;;3.30;1.90;;;;;;;17.05;72.71;98714.19;435467;1254;139515;-66
2023/07/26 12:34:40;;;;;;;3.00;2.00;;;;;;;17.04;72.15;98718.40;435680;1256;140301;-67
2023/07/26 12:44:49;;;;;;;2.20;2.00;;;;;;;16.96;71.60;98719.74;435061;1253;140609;-69
2023/07/26 12:54:56;;;;;;;3.10;2.50;;;;;;;17.04;72.24;98727.39;434855;1257;139645;-69
2023/07/26 13:05:02;;;;;;;3.90;3.10;;;;;;;17.12;72.65;98738.05;434854;1254;139830;-70
2023/07/26 13:15:09;;;;;;;5.80;2.60;;;;;;;17.02;72.93;98751.31;435232;1254;139479;-70
2023/07/26 13:25:15;;;;;;;7.50;3.00;;;;;;;17.06;73.29;98758.89;435022;1257;140578;-68
2023/07/26 13:35:21;;;;;;;2.80;2.20;;;;;;;17.04;73.29;98770.22;435000;1253;140566;-68
2023/07/26 13:45:27;;;;;;;5.10;2.90;;;;;;;16.99;73.39;98779.13;434762;1256;139556;-64
2023/07/26 13:55:35;;;;;;;2.90;2.60;;;;;;;16.92;73.79;98787.23;434913;1256;139690;-67
2023/07/26 14:05:41;;;;;;;6.70;4.00;;;;;;;16.89;74.13;98790.30;434874;1253;139720;-66
2023/07/26 14:15:46;;;;;;;4.00;2.30;;;;;;;16.82;74.14;98790.77;435075;1254;139208;-64
2023/07/26 14:25:52;;;;;;;3.60;2.40;;;;;;;16.61;74.13;98799.42;434727;1253;140037;-64
2023/07/26 14:35:58;;;;;;;4.00;2.50;;;;;;;16.52;74.92;98811.65;435236;1253;139617;-64
2023/07/26 14:46:07;;;;;;;6.20;3.50;;;;;;;16.40;75.19;98815.19;435577;1253;139185;-64
2023/07/26 14:56:13;;;;;;;5.00;2.80;;;;;;;16.10;75.94;98814.60;434635;1256;142297;-64
2023/07/26 15:06:19;;;;;;;3.60;3.20;;;;;;;15.85;76.48;98813.99;435364;1256;139350;-67
2023/07/26 15:16:26;;;;;;;5.00;3.20;;;;;;;15.43;77.13;98814.94;435121;1256;139514;-67
2023/07/26 15:26:31;;;;;;;5.30;3.60;;;;;;;15.35;78.58;98817.92;435100;1256;139320;-66
2023/07/26 15:36:38;;;;;;;6.20;4.00;;;;;;;15.39;79.13;98812.05;435588;1253;139071;-67
2023/07/26 15:46:44;;;;;;;6.50;4.50;;;;;;;15.52;79.49;98803.10;435340;1253;139149;-64
2023/07/26 15:57:10;;;;;;;6.40;3.80;;;;;;;15.50;79.78;98793.11;435384;1254;139304;-64
2023/07/26 16:07:15;;;;;;;4.50;3.90;;;;;;;15.43;80.09;98785.45;436300;1253;139151;-66
2023/07/26 16:17:22;;;;;;;5.60;3.80;;;;;;;15.40;80.48;98774.41;435979;1253;139220;-68
2023/07/26 16:27:28;;;;;;;4.50;3.80;;;;;;;15.40;80.49;98771.07;435311;1253;140533;-71
2023/07/26 16:37:34;;;;;;;5.30;3.80;;;;;;;15.31;80.61;98771.61;435393;1253;139617;-71
2023/07/26 16:47:42;;;;;;;6.60;4.40;;;;;;;15.23;81.19;98774.13;436110;1256;140033;-67
2023/07/26 16:57:48;;;;;;;5.80;3.70;;;;;;;15.16;81.41;98778.14;435664;1253;139510;-66
2023/07/26 17:07:53;;;;;;;6.60;3.50;;;;;;;15.09;81.72;98782.53;435668;1254;140304;-71
2023/07/26 17:17:59;;;;;;;4.20;3.80;;;;;;;14.97;81.89;98787.32;435118;1254;140051;-71
2023/07/26 17:28:05;;;;;;;8.30;4.70;;;;;;;14.78;82.29;98798.23;434847;1256;140313;-66
2023/07/26 17:38:11;;;;;;;5.50;4.50;;;;;;;14.65;83.08;98808.98;435484;1253;139431;-66
2023/07/26 17:48:17;;;;;;;6.70;5.20;;;;;;;14.56;83.65;98818.95;434838;1256;140076;-66
2023/07/26 17:58:24;;;;;;;4.30;4.00;;;;;;;14.36;84.29;98822.55;435160;1256;139722;-67
2023/07/26 18:08:33;;;;;;;6.60;5.50;;;;;;;14.26;85.01;98825.05;435183;1253;140038;-66
2023/07/26 18:18:38;;;;;;;4.80;4.40;;;;;;;14.13;85.43;98829.39;436265;1255;141655;-66
2023/07/26 18:28:44;;;;;;;7.50;4.70;;;;;;;13.96;86.11;98833.76;435404;1256;139657;-72
2023/07/26 18:38:50;;;;;;;6.40;5.70;;;;;;;13.74;87.17;98841.20;435889;1253;139524;-67
2023/07/26 18:48:56;;;;;;;4.40;3.90;;;;;;;13.66;87.95;98858.75;435795;1253;140356;-65
2023/07/26 18:59:02;;;;;;;7.00;5.10;;;;;;;13.57;88.17;98869.18;435395;1253;139164;-65
2023/07/26 19:09:08;;;;;;;6.40;5.40;;;;;;;13.51;88.61;98868.89;435529;1253;139666;-71
2023/07/26 19:19:14;;;;;;;7.10;5.50;;;;;;;13.40;89.35;98867.08;436245;1254;139744;-67
2023/07/26 19:29:19;;;;;;;6.90;5.30;;;;;;;13.33;89.81;98868.58;436334;1253;140056;-68
2023/07/26 19:39:25;;;;;;;7.80;5.70;;;;;;;13.21;90.14;98878.92;435240;1253;330774;-69
2023/07/26 19:49:31;;;;;;;7.10;5.20;;;;;;;13.11;90.60;98881.21;435933;1256;139593;-70
2023/07/26 19:59:38;;;;;;;7.70;5.50;;;;;;;13.07;91.06;98884.19;436287;1256;139567;-72
2023/07/26 20:09:44;;;;;;;9.10;7.10;;;;;;;13.11;91.44;98881.21;436086;1256;141699;-69
2023/07/26 20:19:50;;;;;;;8.10;6.40;;;;;;;13.16;91.64;98882.16;436695;1253;140157;-70
2023/07/26 20:29:56;;;;;;;8.90;6.20;;;;;;;13.14;91.60;98894.67;436079;1253;139549;-68
2023/07/26 20:40:04;;;;;;;7.70;7.10;;;;;;;13.18;91.96;98892.52;435867;1256;140435;-69
2023/07/26 20:50:10;;;;;;;9.60;7.30;;;;;;;13.23;92.22;98891.97;435639;1254;139205;-68
2023/07/26 21:00:16;;;;;;;11.30;7.40;;;;;;;13.26;92.44;98888.73;435324;1256;139562;-68
2023/07/26 21:10:23;;;;;;;10.50;7.50;;;;;;;13.26;92.53;98889.27;435622;1253;140063;-68
2023/07/26 21:20:30;;;;;;;8.60;7.70;;;;;;;13.24;92.82;98889.09;435374;1256;139311;-67
2023/07/26 21:30:35;;;;;;;10.30;7.70;;;;;;;13.15;93.03;98887.21;435586;1254;140204;-68
2023/07/26 21:40:41;;;;;;;9.60;8.60;;;;;;;13.13;93.69;98896.01;435516;1253;140604;-68
2023/07/26 21:50:48;;;;;;;9.50;8.60;;;;;;;13.14;93.97;98923.30;435358;1254;140516;-69
2023/07/26 22:00:55;;;;;;;10.70;9.60;;;;;;;13.16;94.26;98934.70;435598;1256;139472;-68
2023/07/26 22:11:01;;;;;;;11.00;9.30;;;;;;;13.21;94.69;98936.09;435942;1253;139991;-69
2023/07/26 22:21:08;;;;;;;10.90;9.00;;;;;;;13.15;94.95;98933.91;435334;1256;140387;-69
2023/07/26 22:31:21;;;;;;;8.00;7.30;;;;;;;13.18;95.06;98934.34;434847;1253;139439;-68
2023/07/26 22:41:30;;;;;;;9.20;5.80;;;;;;;13.19;94.35;98932.36;434931;1254;139569;-69
2023/07/26 22:51:36;;;;;;;8.10;5.70;;;;;;;13.21;93.30;98927.79;434760;1252;139268;-69
2023/07/26 23:01:42;;;;;;;5.90;5.30;;;;;;;13.25;92.41;98926.58;434949;1256;139744;-69
2023/07/26 23:11:48;;;;;;;4.10;3.30;;;;;;;13.21;91.74;98928.52;435118;1254;139186;-69
2023/07/26 23:21:53;;;;;;;7.40;5.10;;;;;;;13.20;90.96;98939.13;436170;1254;139256;-70
2023/07/26 23:31:59;;;;;;;8.20;5.20;;;;;;;13.17;90.39;98947.44;434785;1256;139257;-69
2023/07/26 23:42:06;;;;;;;3.40;3.00;;;;;;;13.11;89.84;98949.36;435658;1253;140738;-69
2023/07/26 23:52:12;;;;;;;3.30;1.60;;;;;;;13.05;88.95;98949.15;436013;1256;139277;-69
